sensor_id;sensor_type;location;lat;lon;timestamp;P1;durP1;ratioP1;P2;durP2;ratioP2
34896;SDS011;43407;51.828;-2.298;2023-08-01T00:01:02;14.10;;;5.80;;
34896;SDS011;43407;51.828;-2.298;2023-08-01T00:03:28;14.68;;;5.88;;
34896;SDS011;43407;51.828;-2.298;2023-08-01T00:05:53;12.05;;;6.10;;
34896;SDS011;43407;51.828;-2.298;2023-08-01T00:08:20;9.75;;;5.57;;
34896;SDS011;43407;51.828;-2.298;2023-08-01T00:10:46;19.92;;;7.18;;
34896;SDS011;43407;51.828;-2.298;2023-08-01T00:13:11;11.43;;;6.15;;
34896;SDS011;43407;51.828;-2.298;2023-08-01T00:15:37;11.27;;;5.78;;
34896;SDS011;43407;51.828;-2.298;2023-08-01T00:18:03;13.88;;;6.05;;
34896;SDS011;43407;51.828;-2.298;2023-08-01T00:20:28;15.60;;;6.40;;
34896;SDS011;43407;51.828;-2.298;2023-08-01T00:22:54;8.85;;;5.00;;
34896;SDS011;43407;51.828;-2.298;2023-08-01T00:25:20;10.32;;;4.93;;
34896;SDS011;43407;51.828;-2.298;2023-08-01T00:27:45;9.00;;;4.68;;
34896;SDS011;43407;51.828;-2.298;2023-08-01T00:30:11;9.15;;;4.78;;
34896;SDS011;43407;51.828;-2.298;2023-08-01T00:32:37;12.05;;;4.40;;
34896;SDS011;43407;51.828;-2.298;2023-08-01T00:35:03;7.70;;;4.15;;
34896;SDS011;43407;51.828;-2.298;2023-08-01T00:37:28;8.00;;;4.28;;
34896;SDS011;43407;51.828;-2.298;2023-08-01T00:39:54;10.52;;;4.93;;
34896;SDS011;43407;51.828;-2.298;2023-08-01T00:42:20;10.07;;;4.70;;
34896;SDS011;43407;51.828;-2.298;2023-08-01T00:44:45;10.50;;;4.53;;
34896;SDS011;43407;51.828;-2.298;2023-08-01T00:47:13;8.20;;;4.53;;
34896;SDS011;43407;51.828;-2.298;2023-08-01T00:49:39;12.50;;;4.78;;
34896;SDS011;43407;51.828;-2.298;2023-08-01T00:52:05;6.70;;;3.83;;
34896;SDS011;43407;51.828;-2.298;2023-08-01T00:54:31;7.22;;;3.88;;
34896;SDS011;43407;51.828;-2.298;2023-08-01T00:57:01;9.93;;;4.10;;
34896;SDS011;43407;51.828;-2.298;2023-08-01T00:59:30;8.18;;;4.07;;
34896;SDS011;43407;51.828;-2.298;2023-08-01T01:01:55;9.45;;;3.63;;
34896;SDS011;43407;51.828;-2.298;2023-08-01T01:04:21;8.70;;;4.45;;
34896;SDS011;43407;51.828;-2.298;2023-08-01T01:06:51;8.38;;;3.67;;
34896;SDS011;43407;51.828;-2.298;2023-08-01T01:09:23;8.15;;;3.50;;
34896;SDS011;43407;51.828;-2.298;2023-08-01T01:11:50;5.18;;;3.30;;
34896;SDS011;43407;51.828;-2.298;2023-08-01T01:14:15;4.50;;;3.38;;
34896;SDS011;43407;51.828;-2.298;2023-08-01T01:16:41;6.80;;;3.13;;
34896;SDS011;43407;51.828;-2.298;2023-08-01T01:19:07;7.25;;;3.47;;
34896;SDS011;43407;51.828;-2.298;2023-08-01T01:21:39;5.90;;;3.63;;
34896;SDS011;43407;51.828;-2.298;2023-08-01T01:24:07;7.95;;;3.45;;
34896;SDS011;43407;51.828;-2.298;2023-08-01T01:26:33;6.40;;;3.70;;
34896;SDS011;43407;51.828;-2.298;2023-08-01T01:29:00;5.60;;;2.90;;
34896;SDS011;43407;51.828;-2.298;2023-08-01T01:31:26;7.63;;;3.83;;
34896;SDS011;43407;51.828;-2.298;2023-08-01T01:33:52;4.43;;;2.47;;
34896;SDS011;43407;51.828;-2.298;2023-08-01T01:36:18;7.05;;;2.63;;
34896;SDS011;43407;51.828;-2.298;2023-08-01T01:38:43;4.70;;;2.55;;
34896;SDS011;43407;51.828;-2.298;2023-08-01T01:41:09;4.80;;;2.35;;
34896;SDS011;43407;51.828;-2.298;2023-08-01T01:43:36;4.82;;;2.92;;
34896;SDS011;43407;51.828;-2.298;2023-08-01T01:46:02;3.83;;;2.55;;
34896;SDS011;43407;51.828;-2.298;2023-08-01T01:48:28;3.15;;;2.10;;
34896;SDS011;43407;51.828;-2.298;2023-08-01T01:50:54;5.72;;;2.30;;
34896;SDS011;43407;51.828;-2.298;2023-08-01T01:53:19;5.18;;;2.50;;
34896;SDS011;43407;51.828;-2.298;2023-08-01T01:55:45;4.53;;;2.15;;
34896;SDS011;43407;51.828;-2.298;2023-08-01T01:58:10;3.13;;;2.35;;
34896;SDS011;43407;51.828;-2.298;2023-08-01T02:00:36;5.15;;;2.20;;
34896;SDS011;43407;51.828;-2.298;2023-08-01T02:03:02;4.75;;;2.20;;
34896;SDS011;43407;51.828;-2.298;2023-08-01T02:05:28;3.72;;;2.30;;
34896;SDS011;43407;51.828;-2.298;2023-08-01T02:07:54;5.00;;;2.10;;
34896;SDS011;43407;51.828;-2.298;2023-08-01T02:10:20;3.88;;;2.33;;
34896;SDS011;43407;51.828;-2.298;2023-08-01T02:12:46;4.03;;;2.03;;
34896;SDS011;43407;51.828;-2.298;2023-08-01T02:15:11;5.63;;;2.58;;
34896;SDS011;43407;51.828;-2.298;2023-08-01T02:17:37;6.25;;;2.72;;
34896;SDS011;43407;51.828;-2.298;2023-08-01T02:20:02;5.35;;;2.30;;
34896;SDS011;43407;51.828;-2.298;2023-08-01T02:22:28;3.78;;;2.08;;
34896;SDS011;43407;51.828;-2.298;2023-08-01T02:24:54;4.07;;;2.10;;
34896;SDS011;43407;51.828;-2.298;2023-08-01T02:27:19;4.15;;;1.80;;
34896;SDS011;43407;51.828;-2.298;2023-08-01T02:29:45;3.70;;;2.00;;
34896;SDS011;43407;51.828;-2.298;2023-08-01T02:32:10;4.30;;;2.33;;
34896;SDS011;43407;51.828;-2.298;2023-08-01T02:34:36;9.77;;;2.38;;
34896;SDS011;43407;51.828;-2.298;2023-08-01T02:37:02;6.90;;;2.22;;
34896;SDS011;43407;51.828;-2.298;2023-08-01T02:39:27;3.13;;;2.00;;
34896;SDS011;43407;51.828;-2.298;2023-08-01T02:41:53;5.07;;;2.00;;
34896;SDS011;43407;51.828;-2.298;2023-08-01T02:44:19;3.70;;;1.70;;
34896;SDS011;43407;51.828;-2.298;2023-08-01T02:46:44;6.15;;;2.10;;
34896;SDS011;43407;51.828;-2.298;2023-08-01T02:49:10;5.20;;;2.00;;
34896;SDS011;43407;51.828;-2.298;2023-08-01T02:51:36;3.10;;;1.83;;
34896;SDS011;43407;51.828;-2.298;2023-08-01T02:54:01;5.35;;;1.83;;
34896;SDS011;43407;51.828;-2.298;2023-08-01T02:56:27;3.30;;;1.77;;
34896;SDS011;43407;51.828;-2.298;2023-08-01T02:58:53;4.22;;;1.88;;
34896;SDS011;43407;51.828;-2.298;2023-08-01T03:01:20;3.35;;;1.88;;
34896;SDS011;43407;51.828;-2.298;2023-08-01T03:03:45;4.03;;;2.10;;
34896;SDS011;43407;51.828;-2.298;2023-08-01T03:06:11;4.72;;;1.77;;
34896;SDS011;43407;51.828;-2.298;2023-08-01T03:08:37;3.90;;;2.08;;
34896;SDS011;43407;51.828;-2.298;2023-08-01T03:11:03;3.83;;;2.10;;
34896;SDS011;43407;51.828;-2.298;2023-08-01T03:13:29;4.90;;;2.10;;
34896;SDS011;43407;51.828;-2.298;2023-08-01T03:15:56;4.47;;;1.90;;
34896;SDS011;43407;51.828;-2.298;2023-08-01T03:18:21;7.18;;;2.08;;
34896;SDS011;43407;51.828;-2.298;2023-08-01T03:20:47;6.35;;;2.17;;
34896;SDS011;43407;51.828;-2.298;2023-08-01T03:23:13;4.10;;;1.90;;
34896;SDS011;43407;51.828;-2.298;2023-08-01T03:25:38;3.10;;;1.83;;
34896;SDS011;43407;51.828;-2.298;2023-08-01T03:28:04;4.10;;;2.00;;
34896;SDS011;43407;51.828;-2.298;2023-08-01T03:30:31;5.28;;;2.03;;
34896;SDS011;43407;51.828;-2.298;2023-08-01T03:32:57;4.60;;;1.85;;
34896;SDS011;43407;51.828;-2.298;2023-08-01T03:35:23;4.75;;;1.80;;
34896;SDS011;43407;51.828;-2.298;2023-08-01T03:37:49;4.72;;;2.40;;
34896;SDS011;43407;51.828;-2.298;2023-08-01T03:40:14;4.50;;;1.92;;
34896;SDS011;43407;51.828;-2.298;2023-08-01T03:42:40;6.80;;;1.80;;
34896;SDS011;43407;51.828;-2.298;2023-08-01T03:45:06;4.15;;;1.83;;
34896;SDS011;43407;51.828;-2.298;2023-08-01T03:47:32;4.65;;;1.75;;
34896;SDS011;43407;51.828;-2.298;2023-08-01T03:49:57;2.88;;;1.50;;
34896;SDS011;43407;51.828;-2.298;2023-08-01T03:52:24;2.72;;;1.30;;
34896;SDS011;43407;51.828;-2.298;2023-08-01T03:54:53;5.57;;;1.55;;
34896;SDS011;43407;51.828;-2.298;2023-08-01T03:57:19;4.10;;;1.67;;
34896;SDS011;43407;51.828;-2.298;2023-08-01T03:59:45;5.68;;;1.63;;
34896;SDS011;43407;51.828;-2.298;2023-08-01T04:02:11;2.80;;;1.67;;
34896;SDS011;43407;51.828;-2.298;2023-08-01T04:04:36;4.97;;;1.77;;
34896;SDS011;43407;51.828;-2.298;2023-08-01T04:07:02;3.28;;;1.30;;
34896;SDS011;43407;51.828;-2.298;2023-08-01T04:09:27;3.33;;;1.63;;
34896;SDS011;43407;51.828;-2.298;2023-08-01T04:11:53;4.75;;;1.50;;
34896;SDS011;43407;51.828;-2.298;2023-08-01T04:14:18;4.65;;;1.60;;
34896;SDS011;43407;51.828;-2.298;2023-08-01T04:16:44;4.47;;;1.60;;
34896;SDS011;43407;51.828;-2.298;2023-08-01T04:19:09;3.83;;;1.55;;
34896;SDS011;43407;51.828;-2.298;2023-08-01T04:21:35;3.78;;;1.60;;
34896;SDS011;43407;51.828;-2.298;2023-08-01T04:24:00;6.30;;;1.77;;
34896;SDS011;43407;51.828;-2.298;2023-08-01T04:26:26;3.50;;;1.38;;
34896;SDS011;43407;51.828;-2.298;2023-08-01T04:28:52;6.53;;;1.98;;
34896;SDS011;43407;51.828;-2.298;2023-08-01T04:31:17;5.53;;;1.45;;
34896;SDS011;43407;51.828;-2.298;2023-08-01T04:33:43;3.65;;;1.65;;
34896;SDS011;43407;51.828;-2.298;2023-08-01T04:36:08;4.07;;;1.80;;
34896;SDS011;43407;51.828;-2.298;2023-08-01T04:38:34;4.78;;;1.38;;
34896;SDS011;43407;51.828;-2.298;2023-08-01T04:41:00;1.95;;;1.10;;
34896;SDS011;43407;51.828;-2.298;2023-08-01T04:43:26;4.95;;;1.42;;
34896;SDS011;43407;51.828;-2.298;2023-08-01T04:45:52;3.42;;;1.40;;
34896;SDS011;43407;51.828;-2.298;2023-08-01T04:48:18;3.30;;;1.40;;
34896;SDS011;43407;51.828;-2.298;2023-08-01T04:50:44;3.65;;;1.20;;
34896;SDS011;43407;51.828;-2.298;2023-08-01T04:53:09;3.70;;;1.48;;
34896;SDS011;43407;51.828;-2.298;2023-08-01T04:55:36;2.65;;;1.23;;
34896;SDS011;43407;51.828;-2.298;2023-08-01T04:58:02;4.05;;;1.30;;
34896;SDS011;43407;51.828;-2.298;2023-08-01T05:00:27;2.45;;;1.20;;
34896;SDS011;43407;51.828;-2.298;2023-08-01T05:02:53;5.10;;;1.30;;
34896;SDS011;43407;51.828;-2.298;2023-08-01T05:05:18;2.58;;;1.33;;
34896;SDS011;43407;51.828;-2.298;2023-08-01T05:07:44;1.85;;;1.00;;
34896;SDS011;43407;51.828;-2.298;2023-08-01T05:10:09;3.00;;;1.15;;
34896;SDS011;43407;51.828;-2.298;2023-08-01T05:12:35;4.35;;;1.08;;
34896;SDS011;43407;51.828;-2.298;2023-08-01T05:15:00;1.45;;;1.17;;
34896;SDS011;43407;51.828;-2.298;2023-08-01T05:17:26;3.95;;;1.45;;
34896;SDS011;43407;51.828;-2.298;2023-08-01T05:19:51;3.63;;;1.20;;
34896;SDS011;43407;51.828;-2.298;2023-08-01T05:22:17;4.07;;;1.33;;
34896;SDS011;43407;51.828;-2.298;2023-08-01T05:24:42;2.13;;;1.17;;
34896;SDS011;43407;51.828;-2.298;2023-08-01T05:27:08;1.52;;;1.00;;
34896;SDS011;43407;51.828;-2.298;2023-08-01T05:29:34;2.08;;;1.10;;
34896;SDS011;43407;51.828;-2.298;2023-08-01T05:32:01;2.65;;;1.30;;
34896;SDS011;43407;51.828;-2.298;2023-08-01T05:34:27;1.75;;;1.00;;
34896;SDS011;43407;51.828;-2.298;2023-08-01T05:36:52;2.10;;;1.13;;
34896;SDS011;43407;51.828;-2.298;2023-08-01T05:39:18;3.53;;;1.20;;
34896;SDS011;43407;51.828;-2.298;2023-08-01T05:41:43;2.63;;;1.30;;
34896;SDS011;43407;51.828;-2.298;2023-08-01T05:44:09;3.80;;;0.95;;
34896;SDS011;43407;51.828;-2.298;2023-08-01T05:46:34;2.83;;;1.45;;
34896;SDS011;43407;51.828;-2.298;2023-08-01T05:49:00;3.15;;;1.40;;
34896;SDS011;43407;51.828;-2.298;2023-08-01T05:51:25;4.43;;;1.30;;
34896;SDS011;43407;51.828;-2.298;2023-08-01T05:53:51;2.83;;;1.50;;
34896;SDS011;43407;51.828;-2.298;2023-08-01T05:56:16;3.28;;;1.52;;
34896;SDS011;43407;51.828;-2.298;2023-08-01T05:58:42;2.70;;;1.27;;
34896;SDS011;43407;51.828;-2.298;2023-08-01T06:01:09;1.98;;;1.35;;
34896;SDS011;43407;51.828;-2.298;2023-08-01T06:03:35;7.00;;;1.75;;
34896;SDS011;43407;51.828;-2.298;2023-08-01T06:06:01;3.45;;;1.50;;
34896;SDS011;43407;51.828;-2.298;2023-08-01T06:08:26;2.42;;;1.25;;
34896;SDS011;43407;51.828;-2.298;2023-08-01T06:10:52;4.75;;;1.27;;
34896;SDS011;43407;51.828;-2.298;2023-08-01T06:13:18;4.20;;;1.10;;
34896;SDS011;43407;51.828;-2.298;2023-08-01T06:15:43;2.95;;;1.40;;
34896;SDS011;43407;51.828;-2.298;2023-08-01T06:18:09;5.03;;;1.70;;
34896;SDS011;43407;51.828;-2.298;2023-08-01T06:20:36;5.80;;;1.40;;
34896;SDS011;43407;51.828;-2.298;2023-08-01T06:23:01;5.25;;;1.70;;
34896;SDS011;43407;51.828;-2.298;2023-08-01T06:25:27;3.28;;;1.42;;
34896;SDS011;43407;51.828;-2.298;2023-08-01T06:27:52;4.53;;;1.58;;
34896;SDS011;43407;51.828;-2.298;2023-08-01T06:30:18;5.93;;;1.60;;
34896;SDS011;43407;51.828;-2.298;2023-08-01T06:32:43;4.07;;;1.80;;
34896;SDS011;43407;51.828;-2.298;2023-08-01T06:35:09;4.93;;;1.40;;
34896;SDS011;43407;51.828;-2.298;2023-08-01T06:37:34;3.65;;;1.60;;
34896;SDS011;43407;51.828;-2.298;2023-08-01T06:40:00;2.60;;;1.20;;
34896;SDS011;43407;51.828;-2.298;2023-08-01T06:42:26;6.15;;;1.77;;
34896;SDS011;43407;51.828;-2.298;2023-08-01T06:44:52;4.03;;;1.42;;
34896;SDS011;43407;51.828;-2.298;2023-08-01T06:47:17;6.22;;;1.30;;
34896;SDS011;43407;51.828;-2.298;2023-08-01T06:49:43;4.90;;;1.42;;
34896;SDS011;43407;51.828;-2.298;2023-08-01T06:52:08;3.78;;;1.50;;
34896;SDS011;43407;51.828;-2.298;2023-08-01T06:54:34;3.67;;;1.40;;
34896;SDS011;43407;51.828;-2.298;2023-08-01T06:57:00;3.58;;;1.20;;
34896;SDS011;43407;51.828;-2.298;2023-08-01T06:59:25;5.55;;;1.40;;
34896;SDS011;43407;51.828;-2.298;2023-08-01T07:01:51;5.32;;;1.80;;
34896;SDS011;43407;51.828;-2.298;2023-08-01T07:04:16;4.80;;;1.65;;
34896;SDS011;43407;51.828;-2.298;2023-08-01T07:06:42;4.15;;;1.50;;
34896;SDS011;43407;51.828;-2.298;2023-08-01T07:09:08;6.80;;;1.63;;
34896;SDS011;43407;51.828;-2.298;2023-08-01T07:11:34;4.20;;;1.65;;
34896;SDS011;43407;51.828;-2.298;2023-08-01T07:13:59;5.47;;;1.75;;
34896;SDS011;43407;51.828;-2.298;2023-08-01T07:16:25;3.22;;;1.60;;
34896;SDS011;43407;51.828;-2.298;2023-08-01T07:18:50;4.22;;;1.70;;
34896;SDS011;43407;51.828;-2.298;2023-08-01T07:21:16;5.82;;;1.80;;
34896;SDS011;43407;51.828;-2.298;2023-08-01T07:23:42;4.93;;;1.55;;
34896;SDS011;43407;51.828;-2.298;2023-08-01T07:26:08;3.15;;;1.60;;
34896;SDS011;43407;51.828;-2.298;2023-08-01T07:28:33;4.88;;;1.55;;
34896;SDS011;43407;51.828;-2.298;2023-08-01T07:30:59;5.97;;;1.70;;
34896;SDS011;43407;51.828;-2.298;2023-08-01T07:33:26;2.55;;;1.33;;
34896;SDS011;43407;51.828;-2.298;2023-08-01T07:35:51;2.80;;;1.45;;
34896;SDS011;43407;51.828;-2.298;2023-08-01T07:38:17;6.63;;;1.63;;
34896;SDS011;43407;51.828;-2.298;2023-08-01T07:40:42;5.22;;;1.52;;
34896;SDS011;43407;51.828;-2.298;2023-08-01T07:43:08;3.72;;;1.35;;
34896;SDS011;43407;51.828;-2.298;2023-08-01T07:45:34;3.72;;;1.27;;
34896;SDS011;43407;51.828;-2.298;2023-08-01T07:48:00;3.17;;;1.38;;
34896;SDS011;43407;51.828;-2.298;2023-08-01T07:50:26;2.47;;;1.30;;
34896;SDS011;43407;51.828;-2.298;2023-08-01T07:52:51;3.10;;;1.65;;
34896;SDS011;43407;51.828;-2.298;2023-08-01T07:55:17;2.97;;;1.00;;
34896;SDS011;43407;51.828;-2.298;2023-08-01T07:57:43;2.70;;;1.08;;
34896;SDS011;43407;51.828;-2.298;2023-08-01T08:00:09;2.88;;;1.17;;
34896;SDS011;43407;51.828;-2.298;2023-08-01T08:02:35;2.30;;;1.25;;
34896;SDS011;43407;51.828;-2.298;2023-08-01T08:05:01;4.30;;;1.17;;
34896;SDS011;43407;51.828;-2.298;2023-08-01T08:07:27;4.10;;;1.45;;
34896;SDS011;43407;51.828;-2.298;2023-08-01T08:09:52;2.78;;;1.25;;
34896;SDS011;43407;51.828;-2.298;2023-08-01T08:12:20;3.10;;;1.10;;
34896;SDS011;43407;51.828;-2.298;2023-08-01T08:14:46;2.00;;;1.10;;
34896;SDS011;43407;51.828;-2.298;2023-08-01T08:17:11;2.20;;;1.13;;
34896;SDS011;43407;51.828;-2.298;2023-08-01T08:19:37;2.33;;;1.38;;
34896;SDS011;43407;51.828;-2.298;2023-08-01T08:22:02;1.55;;;0.90;;
34896;SDS011;43407;51.828;-2.298;2023-08-01T08:24:28;2.35;;;1.02;;
34896;SDS011;43407;51.828;-2.298;2023-08-01T08:26:54;2.22;;;1.10;;
34896;SDS011;43407;51.828;-2.298;2023-08-01T08:29:19;2.45;;;0.80;;
34896;SDS011;43407;51.828;-2.298;2023-08-01T08:31:45;1.55;;;0.80;;
34896;SDS011;43407;51.828;-2.298;2023-08-01T08:34:11;1.73;;;0.80;;
34896;SDS011;43407;51.828;-2.298;2023-08-01T08:36:36;2.20;;;1.05;;
34896;SDS011;43407;51.828;-2.298;2023-08-01T08:39:01;2.05;;;0.80;;
34896;SDS011;43407;51.828;-2.298;2023-08-01T08:41:28;1.00;;;0.85;;
34896;SDS011;43407;51.828;-2.298;2023-08-01T08:43:58;1.50;;;0.80;;
34896;SDS011;43407;51.828;-2.298;2023-08-01T08:46:28;1.50;;;0.80;;
34896;SDS011;43407;51.828;-2.298;2023-08-01T08:48:57;1.80;;;0.77;;
34896;SDS011;43407;51.828;-2.298;2023-08-01T08:51:23;2.75;;;0.70;;
34896;SDS011;43407;51.828;-2.298;2023-08-01T08:53:53;1.33;;;0.85;;
34896;SDS011;43407;51.828;-2.298;2023-08-01T08:56:19;1.75;;;0.80;;
34896;SDS011;43407;51.828;-2.298;2023-08-01T08:58:45;1.50;;;0.70;;
34896;SDS011;43407;51.828;-2.298;2023-08-01T09:01:12;2.70;;;0.82;;
34896;SDS011;43407;51.828;-2.298;2023-08-01T09:03:38;1.45;;;0.80;;
34896;SDS011;43407;51.828;-2.298;2023-08-01T09:06:13;2.25;;;0.80;;
34896;SDS011;43407;51.828;-2.298;2023-08-01T09:08:40;1.25;;;0.80;;
34896;SDS011;43407;51.828;-2.298;2023-08-01T09:11:12;3.72;;;0.98;;
34896;SDS011;43407;51.828;-2.298;2023-08-01T09:13:38;2.05;;;0.80;;
34896;SDS011;43407;51.828;-2.298;2023-08-01T09:16:03;2.05;;;1.00;;
34896;SDS011;43407;51.828;-2.298;2023-08-01T09:18:31;0.70;;;0.63;;
34896;SDS011;43407;51.828;-2.298;2023-08-01T09:20:57;1.23;;;0.75;;
34896;SDS011;43407;51.828;-2.298;2023-08-01T09:23:27;1.83;;;1.02;;
34896;SDS011;43407;51.828;-2.298;2023-08-01T09:25:52;1.88;;;0.93;;
34896;SDS011;43407;51.828;-2.298;2023-08-01T09:28:22;1.00;;;0.73;;
34896;SDS011;43407;51.828;-2.298;2023-08-01T09:30:53;1.13;;;0.90;;
34896;SDS011;43407;51.828;-2.298;2023-08-01T09:33:20;2.30;;;1.00;;
34896;SDS011;43407;51.828;-2.298;2023-08-01T09:35:48;2.08;;;1.00;;
34896;SDS011;43407;51.828;-2.298;2023-08-01T09:38:14;1.30;;;0.70;;
34896;SDS011;43407;51.828;-2.298;2023-08-01T09:40:41;2.33;;;0.90;;
34896;SDS011;43407;51.828;-2.298;2023-08-01T09:43:07;1.73;;;0.88;;
34896;SDS011;43407;51.828;-2.298;2023-08-01T09:45:33;2.00;;;0.90;;
34896;SDS011;43407;51.828;-2.298;2023-08-01T09:48:00;5.65;;;1.05;;
34896;SDS011;43407;51.828;-2.298;2023-08-01T09:50:26;4.18;;;1.10;;
34896;SDS011;43407;51.828;-2.298;2023-08-01T09:52:51;2.10;;;0.90;;
34896;SDS011;43407;51.828;-2.298;2023-08-01T09:55:33;2.22;;;1.20;;
34896;SDS011;43407;51.828;-2.298;2023-08-01T09:57:59;2.72;;;1.02;;
34896;SDS011;43407;51.828;-2.298;2023-08-01T10:00:26;3.17;;;1.10;;
34896;SDS011;43407;51.828;-2.298;2023-08-01T10:02:52;2.20;;;1.00;;
34896;SDS011;43407;51.828;-2.298;2023-08-01T10:05:18;4.03;;;1.13;;
34896;SDS011;43407;51.828;-2.298;2023-08-01T10:07:45;6.65;;;1.30;;
34896;SDS011;43407;51.828;-2.298;2023-08-01T10:10:10;4.00;;;1.30;;
34896;SDS011;43407;51.828;-2.298;2023-08-01T10:12:37;3.53;;;1.10;;
34896;SDS011;43407;51.828;-2.298;2023-08-01T10:15:03;2.20;;;1.10;;
34896;SDS011;43407;51.828;-2.298;2023-08-01T10:17:30;4.07;;;1.23;;
34896;SDS011;43407;51.828;-2.298;2023-08-01T10:19:56;5.90;;;1.50;;
34896;SDS011;43407;51.828;-2.298;2023-08-01T10:22:22;4.35;;;0.90;;
34896;SDS011;43407;51.828;-2.298;2023-08-01T10:24:48;2.47;;;1.15;;
34896;SDS011;43407;51.828;-2.298;2023-08-01T10:27:15;3.25;;;1.05;;
34896;SDS011;43407;51.828;-2.298;2023-08-01T10:29:44;1.48;;;0.80;;
34896;SDS011;43407;51.828;-2.298;2023-08-01T10:32:10;3.58;;;1.00;;
34896;SDS011;43407;51.828;-2.298;2023-08-01T10:34:36;1.50;;;0.80;;
34896;SDS011;43407;51.828;-2.298;2023-08-01T10:37:02;2.90;;;0.88;;
34896;SDS011;43407;51.828;-2.298;2023-08-01T10:39:28;2.53;;;1.08;;
34896;SDS011;43407;51.828;-2.298;2023-08-01T10:41:57;1.45;;;1.00;;
34896;SDS011;43407;51.828;-2.298;2023-08-01T10:44:24;2.58;;;1.10;;
34896;SDS011;43407;51.828;-2.298;2023-08-01T10:46:54;1.70;;;1.10;;
34896;SDS011;43407;51.828;-2.298;2023-08-01T10:49:31;3.45;;;0.85;;
34896;SDS011;43407;51.828;-2.298;2023-08-01T10:52:21;3.03;;;1.20;;
34896;SDS011;43407;51.828;-2.298;2023-08-01T10:54:55;2.00;;;1.20;;
34896;SDS011;43407;51.828;-2.298;2023-08-01T10:57:25;2.45;;;1.10;;
34896;SDS011;43407;51.828;-2.298;2023-08-01T10:59:52;3.03;;;1.13;;
34896;SDS011;43407;51.828;-2.298;2023-08-01T11:02:24;3.60;;;1.50;;
34896;SDS011;43407;51.828;-2.298;2023-08-01T11:05:10;2.22;;;1.27;;
34896;SDS011;43407;51.828;-2.298;2023-08-01T11:07:36;5.43;;;1.17;;
34896;SDS011;43407;51.828;-2.298;2023-08-01T11:10:06;2.58;;;0.98;;
34896;SDS011;43407;51.828;-2.298;2023-08-01T11:12:44;1.25;;;1.00;;
34896;SDS011;43407;51.828;-2.298;2023-08-01T11:15:11;1.88;;;1.20;;
34896;SDS011;43407;51.828;-2.298;2023-08-01T11:17:41;2.58;;;1.08;;
34896;SDS011;43407;51.828;-2.298;2023-08-01T11:20:08;2.17;;;1.13;;
34896;SDS011;43407;51.828;-2.298;2023-08-01T11:22:35;3.92;;;1.13;;
34896;SDS011;43407;51.828;-2.298;2023-08-01T11:25:14;1.65;;;0.90;;
34896;SDS011;43407;51.828;-2.298;2023-08-01T11:27:39;1.63;;;0.90;;
34896;SDS011;43407;51.828;-2.298;2023-08-01T11:30:05;1.65;;;1.10;;
34896;SDS011;43407;51.828;-2.298;2023-08-01T11:32:34;1.85;;;0.88;;
34896;SDS011;43407;51.828;-2.298;2023-08-01T11:35:01;2.78;;;0.80;;
34896;SDS011;43407;51.828;-2.298;2023-08-01T11:37:26;1.33;;;0.77;;
34896;SDS011;43407;51.828;-2.298;2023-08-01T11:39:52;2.30;;;0.98;;
34896;SDS011;43407;51.828;-2.298;2023-08-01T11:42:18;2.17;;;0.70;;
34896;SDS011;43407;51.828;-2.298;2023-08-01T11:44:43;0.95;;;0.60;;
34896;SDS011;43407;51.828;-2.298;2023-08-01T11:47:13;0.90;;;0.40;;
34896;SDS011;43407;51.828;-2.298;2023-08-01T11:49:39;1.52;;;0.68;;
34896;SDS011;43407;51.828;-2.298;2023-08-01T11:52:21;1.73;;;0.60;;
34896;SDS011;43407;51.828;-2.298;2023-08-01T11:54:53;1.33;;;0.80;;
34896;SDS011;43407;51.828;-2.298;2023-08-01T11:57:22;1.17;;;0.90;;
34896;SDS011;43407;51.828;-2.298;2023-08-01T11:59:49;2.65;;;0.88;;
34896;SDS011;43407;51.828;-2.298;2023-08-01T12:02:25;2.00;;;0.68;;
34896;SDS011;43407;51.828;-2.298;2023-08-01T12:04:52;2.50;;;0.90;;
34896;SDS011;43407;51.828;-2.298;2023-08-01T12:07:19;1.30;;;0.60;;
34896;SDS011;43407;51.828;-2.298;2023-08-01T12:09:54;3.15;;;0.90;;
34896;SDS011;43407;51.828;-2.298;2023-08-01T12:12:21;1.70;;;0.80;;
34896;SDS011;43407;51.828;-2.298;2023-08-01T12:14:47;1.30;;;0.70;;
34896;SDS011;43407;51.828;-2.298;2023-08-01T12:17:13;1.50;;;0.80;;
34896;SDS011;43407;51.828;-2.298;2023-08-01T12:19:38;2.05;;;0.80;;
34896;SDS011;43407;51.828;-2.298;2023-08-01T12:22:04;1.77;;;0.80;;
34896;SDS011;43407;51.828;-2.298;2023-08-01T12:24:29;1.20;;;0.73;;
34896;SDS011;43407;51.828;-2.298;2023-08-01T12:26:55;4.47;;;0.80;;
34896;SDS011;43407;51.828;-2.298;2023-08-01T12:29:21;1.52;;;0.73;;
34896;SDS011;43407;51.828;-2.298;2023-08-01T12:31:46;2.63;;;0.88;;
34896;SDS011;43407;51.828;-2.298;2023-08-01T12:34:12;1.90;;;0.80;;
34896;SDS011;43407;51.828;-2.298;2023-08-01T12:36:37;1.58;;;0.70;;
34896;SDS011;43407;51.828;-2.298;2023-08-01T12:39:03;1.50;;;0.70;;
34896;SDS011;43407;51.828;-2.298;2023-08-01T12:41:29;1.10;;;0.70;;
34896;SDS011;43407;51.828;-2.298;2023-08-01T12:43:54;2.92;;;0.90;;
34896;SDS011;43407;51.828;-2.298;2023-08-01T12:46:20;1.50;;;0.70;;
34896;SDS011;43407;51.828;-2.298;2023-08-01T12:48:45;1.13;;;0.70;;
34896;SDS011;43407;51.828;-2.298;2023-08-01T12:51:11;0.80;;;0.65;;
34896;SDS011;43407;51.828;-2.298;2023-08-01T12:53:39;2.28;;;0.80;;
34896;SDS011;43407;51.828;-2.298;2023-08-01T12:56:05;4.43;;;0.90;;
34896;SDS011;43407;51.828;-2.298;2023-08-01T12:58:30;3.05;;;0.93;;
34896;SDS011;43407;51.828;-2.298;2023-08-01T13:00:56;3.42;;;0.90;;
34896;SDS011;43407;51.828;-2.298;2023-08-01T13:03:21;3.35;;;1.00;;
34896;SDS011;43407;51.828;-2.298;2023-08-01T13:05:47;2.88;;;1.00;;
34896;SDS011;43407;51.828;-2.298;2023-08-01T13:08:12;2.05;;;0.80;;
34896;SDS011;43407;51.828;-2.298;2023-08-01T13:10:38;4.28;;;0.93;;
34896;SDS011;43407;51.828;-2.298;2023-08-01T13:13:03;1.48;;;0.88;;
34896;SDS011;43407;51.828;-2.298;2023-08-01T13:15:29;2.17;;;1.20;;
34896;SDS011;43407;51.828;-2.298;2023-08-01T13:17:55;5.50;;;1.08;;
34896;SDS011;43407;51.828;-2.298;2023-08-01T13:20:20;3.88;;;1.10;;
34896;SDS011;43407;51.828;-2.298;2023-08-01T13:22:47;5.95;;;1.67;;
34896;SDS011;43407;51.828;-2.298;2023-08-01T13:25:14;3.00;;;1.10;;
34896;SDS011;43407;51.828;-2.298;2023-08-01T13:27:41;2.83;;;1.10;;
34896;SDS011;43407;51.828;-2.298;2023-08-01T13:30:07;3.00;;;1.48;;
34896;SDS011;43407;51.828;-2.298;2023-08-01T13:32:33;5.80;;;1.15;;
34896;SDS011;43407;51.828;-2.298;2023-08-01T13:34:59;4.63;;;1.30;;
34896;SDS011;43407;51.828;-2.298;2023-08-01T13:37:24;5.80;;;1.40;;
34896;SDS011;43407;51.828;-2.298;2023-08-01T13:39:50;3.58;;;1.25;;
34896;SDS011;43407;51.828;-2.298;2023-08-01T13:42:15;3.03;;;1.42;;
34896;SDS011;43407;51.828;-2.298;2023-08-01T13:44:41;7.35;;;1.67;;
34896;SDS011;43407;51.828;-2.298;2023-08-01T13:47:06;3.38;;;1.50;;
34896;SDS011;43407;51.828;-2.298;2023-08-01T13:49:32;3.47;;;1.27;;
34896;SDS011;43407;51.828;-2.298;2023-08-01T13:51:58;5.00;;;1.42;;
34896;SDS011;43407;51.828;-2.298;2023-08-01T13:54:24;4.03;;;1.42;;
34896;SDS011;43407;51.828;-2.298;2023-08-01T13:56:49;3.95;;;1.25;;
34896;SDS011;43407;51.828;-2.298;2023-08-01T13:59:14;4.35;;;1.15;;
34896;SDS011;43407;51.828;-2.298;2023-08-01T14:01:41;6.63;;;1.77;;
34896;SDS011;43407;51.828;-2.298;2023-08-01T14:04:07;5.85;;;1.52;;
34896;SDS011;43407;51.828;-2.298;2023-08-01T14:06:32;3.80;;;1.30;;
34896;SDS011;43407;51.828;-2.298;2023-08-01T14:08:58;4.03;;;1.50;;
34896;SDS011;43407;51.828;-2.298;2023-08-01T14:11:23;4.68;;;1.55;;
34896;SDS011;43407;51.828;-2.298;2023-08-01T14:13:49;3.30;;;1.15;;
34896;SDS011;43407;51.828;-2.298;2023-08-01T14:16:15;3.30;;;1.10;;
34896;SDS011;43407;51.828;-2.298;2023-08-01T14:18:41;5.53;;;1.55;;
34896;SDS011;43407;51.828;-2.298;2023-08-01T14:21:07;2.30;;;1.40;;
34896;SDS011;43407;51.828;-2.298;2023-08-01T14:23:34;2.95;;;1.17;;
34896;SDS011;43407;51.828;-2.298;2023-08-01T14:26:01;3.75;;;1.35;;
34896;SDS011;43407;51.828;-2.298;2023-08-01T14:28:27;4.95;;;1.30;;